Alleghenyville, Pennsylvania
Current Conditions -  °F | °C
As of 3:54 AM on Saturday 25 Oct 2014 (Local Time) from KRDG Reporting Station
Clear Clear  
Wind Chill: 50°   Ceiling: Unl
Heat Index: 50°   Visibility: 10mi
Dew Point: 36°   Wind: 5mph
Humidity: 59%   Direction: 310°NW
Pressure: 29.91"   Gusts: NA
Location:  40.2411°N, 75.9752°W
Report Text: KRDG 250754Z AUTO 31004KT 10SM CLR 10/02 A2991 RMK AO2 SLP132 T01000022
Loading
Personal Weather Stations






























Interactive Weather Map
Tropical Storm Tracking
New forecast layout! Learn more

10-Day Weather Forecast

Advertisements
Track Severe Weather on mobile